createdAt,value
2019-04-14T00:01:50.085Z,10.10
2019-04-14T00:04:25.209Z,10.18
2019-04-14T00:06:55.455Z,10.72
2019-04-14T00:09:25.606Z,10.15
2019-04-14T00:11:57.583Z,9.98
2019-04-14T00:14:27.693Z,8.68
2019-04-14T00:16:59.552Z,9.20
2019-04-14T00:19:30.620Z,10.45
2019-04-14T00:22:03.220Z,9.83
2019-04-14T00:24:35.728Z,9.63
2019-04-14T00:27:06.542Z,9.35
2019-04-14T00:29:37.154Z,9.90
2019-04-14T00:32:07.462Z,9.60
2019-04-14T00:34:50.909Z,10.10
2019-04-14T00:37:40.981Z,10.30
2019-04-14T00:40:17.031Z,10.25
2019-04-14T00:43:00.609Z,10.58
2019-04-14T00:45:43.420Z,10.00
2019-04-14T00:48:15.763Z,10.45
2019-04-14T00:51:03.105Z,10.27
2019-04-14T00:53:33.873Z,8.78
2019-04-14T00:56:04.267Z,10.55
2019-04-14T00:58:34.757Z,9.75
2019-04-14T01:01:06.931Z,9.85
2019-04-14T01:03:37.408Z,10.40
2019-04-14T01:06:09.652Z,9.35
2019-04-14T01:08:40.347Z,10.30
2019-04-14T01:11:11.687Z,10.43
2019-04-14T01:13:43.933Z,10.23
2019-04-14T01:16:18.939Z,10.23
2019-04-14T01:18:47.199Z,9.15
2019-04-14T01:21:17.475Z,8.83
2019-04-14T01:23:48.011Z,9.73
2019-04-14T01:26:20.370Z,10.20
2019-04-14T01:28:50.528Z,9.55
2019-04-14T01:31:20.920Z,8.58
2019-04-14T01:33:51.221Z,9.55
2019-04-14T01:36:21.419Z,9.85
2019-04-14T01:38:51.434Z,9.55
2019-04-14T01:41:21.795Z,9.25
2019-04-14T01:43:51.946Z,10.25
2019-04-14T01:46:26.558Z,8.93
2019-04-14T01:48:54.197Z,8.48
2019-04-14T01:51:44.192Z,9.03
2019-04-14T01:54:23.518Z,9.33
2019-04-14T01:57:02.481Z,10.18
2019-04-14T01:59:33.141Z,9.18
2019-04-14T02:02:05.130Z,10.00
2019-04-14T02:04:35.557Z,9.13
2019-04-14T02:07:05.954Z,10.30
2019-04-14T02:09:37.823Z,8.48
2019-04-14T02:12:08.427Z,8.35
2019-04-14T02:14:58.252Z,8.28
2019-04-14T02:17:28.558Z,8.23
2019-04-14T02:19:59.015Z,8.03
2019-04-14T02:22:29.227Z,8.70
2019-04-14T02:25:01.457Z,8.10
2019-04-14T02:27:31.915Z,9.10
2019-04-14T02:30:03.838Z,8.40
2019-04-14T02:33:05.356Z,8.18
2019-04-14T02:35:44.861Z,8.07
2019-04-14T02:38:23.372Z,9.17
2019-04-14T02:40:53.247Z,8.30
2019-04-14T02:43:23.862Z,8.58
2019-04-14T02:45:59.770Z,7.90
2019-04-14T02:48:41.937Z,8.47
2019-04-14T02:51:10.830Z,9.33
2019-04-14T02:53:44.173Z,7.40
2019-04-14T02:56:08.557Z,7.93
2019-04-14T02:58:53.600Z,8.15
2019-04-14T03:01:21.205Z,7.57
2019-04-14T03:03:49.521Z,8.33
2019-04-14T03:08:59.112Z,7.63
2019-04-14T03:14:06.324Z,7.23
2019-04-14T03:17:07.600Z,8.30
2019-04-14T03:19:39.064Z,7.70
2019-04-14T03:22:25.878Z,8.18
2019-04-14T03:24:53.848Z,7.95
2019-04-14T03:27:49.831Z,8.03
2019-04-14T03:30:34.031Z,7.43
2019-04-14T03:40:27.458Z,8.18
2019-04-14T03:43:03.999Z,8.20
2019-04-14T03:45:43.405Z,7.90
2019-04-14T03:48:34.410Z,7.83
2019-04-14T03:50:36.764Z,8.03
2019-04-14T03:55:58.708Z,7.53
2019-04-14T03:58:24.631Z,8.63
2019-04-14T04:00:55.412Z,6.70
2019-04-14T04:03:26.085Z,7.53
2019-04-14T04:05:56.534Z,7.33
2019-04-14T04:08:26.977Z,6.55
2019-04-14T04:10:57.625Z,7.22
2019-04-14T04:13:28.124Z,7.12
2019-04-14T04:16:13.666Z,7.03
2019-04-14T04:18:54.160Z,6.83
2019-04-14T04:21:35.564Z,7.20
2019-04-14T04:24:27.767Z,7.13
2019-04-14T04:27:15.812Z,7.20
2019-04-14T04:29:53.516Z,6.70
2019-04-14T04:32:36.294Z,7.23
2019-04-14T04:35:35.662Z,7.00
2019-04-14T04:38:10.319Z,6.70
2019-04-14T04:40:42.114Z,6.13
2019-04-14T04:43:12.607Z,6.58
2019-04-14T04:45:43.115Z,6.97
2019-04-14T04:48:13.446Z,6.47
2019-04-14T04:50:43.591Z,7.10
2019-04-14T04:53:13.773Z,6.73
2019-04-14T04:55:44.188Z,6.50
2019-04-14T04:58:15.184Z,6.65
2019-04-14T05:00:47.370Z,6.30
2019-04-14T05:03:18.913Z,7.03
2019-04-14T05:06:28.782Z,6.43
2019-04-14T05:09:07.749Z,6.57
2019-04-14T05:11:46.944Z,6.20
2019-04-14T05:14:26.014Z,5.87
2019-04-14T05:16:57.154Z,5.73
2019-04-14T05:19:31.843Z,7.03
2019-04-14T05:21:59.189Z,6.13
2019-04-14T05:24:29.634Z,6.27
2019-04-14T05:26:59.823Z,5.55
2019-04-14T05:29:29.828Z,6.63
2019-04-14T05:32:00.160Z,6.40
2019-04-14T05:34:30.516Z,6.50
2019-04-14T05:37:00.739Z,5.83
2019-04-14T05:39:30.849Z,6.87
2019-04-14T05:42:10.746Z,6.47
2019-04-14T05:44:33.947Z,6.33
2019-04-14T05:47:04.474Z,5.07
2019-04-14T05:49:41.459Z,6.03
2019-04-14T05:52:06.220Z,5.87
2019-04-14T05:54:36.221Z,6.00
2019-04-14T05:57:06.604Z,5.70
2019-04-14T05:59:37.524Z,6.10
2019-04-14T06:02:07.799Z,6.37
2019-04-14T06:04:37.941Z,5.70
2019-04-14T06:07:08.003Z,6.50
2019-04-14T06:09:38.090Z,6.00
2019-04-14T06:12:08.191Z,6.17
2019-04-14T06:14:39.117Z,5.97
2019-04-14T06:17:09.113Z,5.80
2019-04-14T06:19:40.735Z,6.08
2019-04-14T06:22:11.269Z,5.45
2019-04-14T06:24:41.426Z,5.83
2019-04-14T06:27:11.514Z,5.67
2019-04-14T06:29:41.610Z,6.12
2019-04-14T06:32:21.783Z,6.37
2019-04-14T06:35:11.049Z,5.80
2019-04-14T06:37:46.853Z,5.30
2019-04-14T06:40:16.971Z,6.03
2019-04-14T06:42:47.060Z,5.92
2019-04-14T06:45:19.507Z,6.00
2019-04-14T06:47:50.695Z,5.92
2019-04-14T06:50:20.954Z,5.37
2019-04-14T06:52:51.161Z,6.05
2019-04-14T06:55:21.534Z,5.97
2019-04-14T06:57:51.867Z,5.75
2019-04-14T07:00:22.130Z,6.33
2019-04-14T07:02:52.177Z,5.85
2019-04-14T07:05:22.424Z,5.90
2019-04-14T07:07:57.159Z,5.03
2019-04-14T07:10:27.515Z,6.05
2019-04-14T07:12:57.620Z,5.65
2019-04-14T07:15:27.893Z,5.35
2019-04-14T07:17:58.117Z,5.05
2019-04-14T07:20:28.167Z,6.65
2019-04-14T07:22:58.317Z,5.53
2019-04-14T07:25:28.671Z,5.00
2019-04-14T07:27:59.010Z,5.15
2019-04-14T07:30:45.634Z,5.85
2019-04-14T07:33:30.976Z,5.22
2019-04-14T07:36:20.112Z,5.03
2019-04-14T07:38:55.539Z,5.58
2019-04-14T07:41:43.287Z,5.20
2019-04-14T07:44:23.310Z,5.65
2019-04-14T07:47:00.002Z,5.20
2019-04-14T07:49:49.137Z,4.75
2019-04-14T07:52:38.396Z,5.50
2019-04-14T07:55:22.981Z,4.80
2019-04-14T07:58:03.652Z,5.05
2019-04-14T08:00:37.297Z,5.78
2019-04-14T08:03:26.615Z,5.20
2019-04-14T08:05:57.052Z,5.55
2019-04-14T08:08:27.158Z,4.50
2019-04-14T08:10:57.874Z,5.03
2019-04-14T08:13:27.927Z,4.83
2019-04-14T08:15:58.106Z,4.42
2019-04-14T08:18:28.530Z,4.37
2019-04-14T08:20:58.623Z,4.53
2019-04-14T08:23:28.683Z,4.12
2019-04-14T08:25:59.093Z,3.87
2019-04-14T08:28:29.101Z,4.08
2019-04-14T08:30:59.214Z,4.03
2019-04-14T08:33:29.348Z,3.70
2019-04-14T08:35:59.494Z,4.80
2019-04-14T08:38:29.568Z,3.25
2019-04-14T08:40:59.688Z,3.65
2019-04-14T08:43:48.815Z,3.35
2019-04-14T08:46:38.026Z,3.52
2019-04-14T08:49:18.463Z,3.70
2019-04-14T08:52:07.654Z,3.90
2019-04-14T08:54:56.861Z,3.87
2019-04-14T08:57:37.070Z,3.60
2019-04-14T09:00:13.678Z,2.92
2019-04-14T09:03:02.861Z,3.05
2019-04-14T09:05:52.187Z,3.65
2019-04-14T09:08:27.601Z,4.15
2019-04-14T09:10:59.972Z,3.55
2019-04-14T09:13:29.908Z,3.65
2019-04-14T09:16:00.109Z,3.90
2019-04-14T09:18:30.448Z,3.25
2019-04-14T09:21:00.655Z,3.25
2019-04-14T09:23:31.170Z,3.10
2019-04-14T09:26:01.448Z,3.50
2019-04-14T09:28:31.542Z,3.35
2019-04-14T09:31:01.693Z,3.62
2019-04-14T09:33:31.891Z,3.40
2019-04-14T09:36:01.971Z,3.45
2019-04-14T09:38:32.730Z,3.17
2019-04-14T09:41:02.809Z,3.90
2019-04-14T09:43:32.947Z,4.00
2019-04-14T09:46:03.062Z,3.50
2019-04-14T09:48:33.203Z,4.17
2019-04-14T09:51:04.963Z,3.50
2019-04-14T09:53:35.285Z,3.98
2019-04-14T09:56:05.685Z,4.22
2019-04-14T09:58:37.472Z,3.80
2019-04-14T10:01:09.155Z,3.80
2019-04-14T10:03:39.484Z,3.37
2019-04-14T10:06:09.768Z,3.75
2019-04-14T10:08:40.269Z,3.58
2019-04-14T10:11:11.616Z,3.67
2019-04-14T10:13:41.931Z,4.58
2019-04-14T10:16:12.292Z,3.87
2019-04-14T10:18:42.354Z,4.42
2019-04-14T10:21:17.693Z,3.62
2019-04-14T10:23:44.349Z,4.47
2019-04-14T10:26:14.524Z,4.42
2019-04-14T10:28:45.173Z,4.25
2019-04-14T10:31:15.469Z,4.67
2019-04-14T10:33:45.594Z,3.90
2019-04-14T10:36:15.855Z,4.15
2019-04-14T10:38:46.104Z,4.03
2019-04-14T10:41:18.297Z,3.40
2019-04-14T10:43:48.571Z,3.62
2019-04-14T10:46:19.655Z,3.40
2019-04-14T10:48:49.929Z,3.60
2019-04-14T10:51:29.370Z,3.98
2019-04-14T10:53:51.936Z,4.17
2019-04-14T10:56:22.015Z,4.03
2019-04-14T10:58:52.193Z,4.12
2019-04-14T11:01:22.341Z,3.10
2019-04-14T11:03:52.807Z,3.40
2019-04-14T11:06:28.525Z,3.10
2019-04-14T11:08:58.592Z,3.33
2019-04-14T11:11:28.852Z,3.22
2019-04-14T11:13:59.060Z,3.30
2019-04-14T11:16:29.252Z,3.00
2019-04-14T11:18:59.367Z,3.12
2019-04-14T11:21:41.628Z,3.35
2019-04-14T11:24:01.877Z,3.70
2019-04-14T11:26:33.021Z,3.12
2019-04-14T11:29:03.279Z,2.92
2019-04-14T11:31:53.493Z,3.55
2019-04-14T11:34:27.309Z,3.33
2019-04-14T11:37:06.121Z,3.00
2019-04-14T11:39:36.425Z,3.77
2019-04-14T11:42:06.704Z,3.08
2019-04-14T11:44:37.357Z,3.17
2019-04-14T11:47:08.239Z,3.22
2019-04-14T11:49:38.450Z,2.72
2019-04-14T11:52:08.701Z,3.35
2019-04-14T11:54:38.964Z,3.20
2019-04-14T11:57:09.047Z,3.17
2019-04-14T11:59:57.111Z,3.83
2019-04-14T12:02:45.598Z,4.25
2019-04-14T12:05:30.364Z,3.90
2019-04-14T12:08:19.492Z,3.40
2019-04-14T12:10:51.258Z,4.10
2019-04-14T12:13:21.334Z,3.37
2019-04-14T12:15:51.424Z,3.70
2019-04-14T12:18:21.437Z,3.45
2019-04-14T12:20:51.544Z,3.95
2019-04-14T12:23:21.801Z,3.75
2019-04-14T12:26:04.476Z,3.95
2019-04-14T12:28:24.048Z,3.65
2019-04-14T12:30:57.617Z,3.83
2019-04-14T12:33:35.406Z,3.90
2019-04-14T12:36:14.032Z,3.75
2019-04-14T12:38:44.378Z,3.90
2019-04-14T12:41:19.801Z,3.52
2019-04-14T12:44:11.920Z,4.33
2019-04-14T12:46:53.155Z,3.62
2019-04-14T12:49:27.491Z,4.37
2019-04-14T12:52:21.367Z,4.45
2019-04-14T12:54:52.977Z,3.87
2019-04-14T12:57:39.872Z,3.17
2019-04-14T13:00:18.847Z,4.00
2019-04-14T13:02:50.962Z,3.70
2019-04-14T13:05:22.325Z,3.35
2019-04-14T13:07:56.260Z,3.77
2019-04-14T13:10:26.948Z,3.42
2019-04-14T13:15:51.594Z,3.02
2019-04-14T13:18:22.199Z,3.33
2019-04-14T13:21:00.956Z,3.05
2019-04-14T13:23:31.139Z,2.90
2019-04-14T13:26:01.406Z,3.25
2019-04-14T13:28:31.564Z,3.60
2019-04-14T13:31:01.611Z,3.87
2019-04-14T13:33:33.455Z,3.72
2019-04-14T13:36:12.532Z,3.30
2019-04-14T13:38:43.366Z,4.05
2019-04-14T13:41:13.998Z,2.80
2019-04-14T13:43:44.009Z,3.08
2019-04-14T13:46:14.316Z,3.58
2019-04-14T13:48:44.749Z,3.40
2019-04-14T13:51:15.370Z,4.12
2019-04-14T13:53:45.573Z,3.15
2019-04-14T13:56:18.003Z,3.42
2019-04-14T13:58:49.097Z,3.17
2019-04-14T14:01:19.194Z,3.20
2019-04-14T14:03:49.451Z,3.40
2019-04-14T14:06:19.626Z,3.10
2019-04-14T14:08:49.608Z,3.55
2019-04-14T14:11:32.194Z,3.40
2019-04-14T14:14:07.575Z,3.85
2019-04-14T14:16:56.751Z,2.92
2019-04-14T14:19:37.874Z,3.42
2019-04-14T14:22:16.192Z,3.65
2019-04-14T14:24:53.887Z,3.37
2019-04-14T14:27:24.007Z,4.33
2019-04-14T14:29:54.179Z,3.35
2019-04-14T14:32:27.913Z,3.47
2019-04-14T14:34:59.017Z,3.55
2019-04-14T14:37:29.924Z,4.10
2019-04-14T14:40:00.094Z,3.12
2019-04-14T14:42:32.588Z,3.60
2019-04-14T14:45:18.772Z,3.52
2019-04-14T14:48:00.955Z,3.75
2019-04-14T14:50:37.458Z,4.25
2019-04-14T14:53:12.339Z,3.65
2019-04-14T14:55:40.088Z,3.80
2019-04-14T14:58:10.196Z,3.75
2019-04-14T15:00:40.627Z,4.10
2019-04-14T15:03:12.417Z,3.98
2019-04-14T15:05:44.782Z,3.98
2019-04-14T15:08:16.507Z,3.50
2019-04-14T15:10:49.490Z,3.90
2019-04-14T15:13:19.936Z,4.00
2019-04-14T15:15:50.967Z,5.80
2019-04-14T15:18:21.498Z,4.47
2019-04-14T15:20:51.848Z,4.17
2019-04-14T15:23:25.198Z,4.58
2019-04-14T15:25:53.811Z,4.30
2019-04-14T15:28:24.062Z,4.45
2019-04-14T15:30:54.836Z,4.30
2019-04-14T15:33:25.307Z,4.40
2019-04-14T15:35:55.435Z,4.53
2019-04-14T15:38:25.620Z,4.60
2019-04-14T15:40:55.988Z,4.35
2019-04-14T15:43:27.049Z,4.35
2019-04-14T15:45:57.487Z,4.10
2019-04-14T15:48:27.950Z,5.65
2019-04-14T15:51:03.032Z,4.60
2019-04-14T15:53:38.162Z,8.80
2019-04-14T15:56:05.378Z,6.25
2019-04-14T15:58:41.339Z,4.20
2019-04-14T16:01:24.538Z,4.65
2019-04-14T16:04:13.332Z,4.65
2019-04-14T16:07:02.567Z,4.80
2019-04-14T16:09:48.769Z,5.10
2019-04-14T16:12:37.897Z,4.55
2019-04-14T16:15:20.856Z,5.90
2019-04-14T16:18:09.603Z,4.75
2019-04-14T16:20:41.919Z,4.62
2019-04-14T16:23:12.104Z,4.12
2019-04-14T16:26:01.306Z,5.10
2019-04-14T16:28:36.885Z,5.17
2019-04-14T16:31:27.135Z,4.50
2019-04-14T16:34:01.941Z,4.65
2019-04-14T16:36:32.174Z,3.22
2019-04-14T16:39:05.219Z,3.77
2019-04-14T16:41:36.838Z,4.15
2019-04-14T16:44:06.877Z,4.00
2019-04-14T16:46:36.995Z,4.47
2019-04-14T16:49:07.209Z,4.75
2019-04-14T16:51:47.110Z,4.05
2019-04-14T16:54:24.209Z,4.05
2019-04-14T16:57:06.428Z,3.92
2019-04-14T16:59:36.487Z,3.72
2019-04-14T17:02:11.030Z,3.62
2019-04-14T17:04:38.572Z,5.15
2019-04-14T17:07:08.728Z,4.78
2019-04-14T17:09:38.812Z,4.58
2019-04-14T17:12:10.538Z,4.92
2019-04-14T17:14:44.928Z,4.42
2019-04-14T17:17:34.010Z,5.90
2019-04-14T17:20:15.678Z,4.53
2019-04-14T17:23:05.027Z,6.83
2019-04-14T17:25:55.647Z,6.17
2019-04-14T17:28:44.868Z,5.10
2019-04-14T17:31:22.588Z,5.17
2019-04-14T17:34:10.111Z,5.30
2019-04-14T17:36:48.453Z,4.78
2019-04-14T17:39:37.638Z,4.50
2019-04-14T17:42:18.967Z,4.53
2019-04-14T17:45:08.233Z,4.15
2019-04-14T17:47:58.992Z,4.33
2019-04-14T17:50:40.874Z,4.85
2019-04-14T17:53:15.207Z,4.90
2019-04-14T17:56:03.590Z,5.08
2019-04-14T17:58:52.790Z,5.83
2019-04-14T18:01:41.878Z,7.00
2019-04-14T18:04:26.183Z,6.95
2019-04-14T18:07:03.892Z,6.60
2019-04-14T18:09:53.119Z,7.75
2019-04-14T18:12:33.613Z,8.25
2019-04-14T18:15:23.307Z,8.80
2019-04-14T18:18:12.570Z,10.25
2019-04-14T18:21:00.086Z,11.93
2019-04-14T18:23:30.249Z,14.03
2019-04-14T18:26:00.735Z,13.95
2019-04-14T18:28:42.814Z,15.55
2019-04-14T18:31:31.932Z,8.98
2019-04-14T18:34:14.487Z,6.70
2019-04-14T18:36:55.933Z,6.00
2019-04-14T18:39:45.294Z,5.17
2019-04-14T18:42:27.307Z,6.35
2019-04-14T18:45:08.178Z,6.37
2019-04-14T18:47:58.903Z,6.28
2019-04-14T18:50:41.199Z,6.05
2019-04-14T18:53:16.365Z,6.08
2019-04-14T18:56:06.229Z,5.75
2019-04-14T18:58:55.339Z,4.80
2019-04-14T19:01:28.593Z,6.05
2019-04-14T19:04:02.244Z,5.28
2019-04-14T19:06:32.962Z,5.22
2019-04-14T19:11:53.355Z,5.45
2019-04-14T19:14:27.219Z,4.78
2019-04-14T19:17:10.006Z,4.90
2019-04-14T19:19:42.929Z,5.37
2019-04-14T19:22:32.339Z,4.55
2019-04-14T19:25:08.473Z,4.90
2019-04-14T19:27:34.468Z,4.67
2019-04-14T19:30:06.249Z,4.83
2019-04-14T19:32:55.502Z,4.87
2019-04-14T19:35:26.977Z,5.53
2019-04-14T19:37:57.931Z,4.83
2019-04-14T19:40:29.477Z,5.17
2019-04-14T19:42:59.924Z,5.35
2019-04-14T19:45:30.462Z,5.20
2019-04-14T19:48:01.739Z,5.37
2019-04-14T19:50:33.373Z,5.28
2019-04-14T19:53:04.903Z,5.70
2019-04-14T19:55:37.281Z,6.53
2019-04-14T19:58:07.838Z,5.95
2019-04-14T20:00:38.252Z,5.72
2019-04-14T20:03:08.566Z,5.65
2019-04-14T20:05:39.115Z,5.17
2019-04-14T20:08:09.421Z,5.47
2019-04-14T20:10:39.536Z,4.85
2019-04-14T20:13:09.678Z,5.85
2019-04-14T20:15:58.834Z,5.60
2019-04-14T20:18:47.946Z,4.72
2019-04-14T20:21:28.100Z,5.10
2019-04-14T20:24:12.108Z,5.97
2019-04-14T20:26:50.936Z,5.15
2019-04-14T20:29:24.657Z,5.15
2019-04-14T20:32:01.870Z,5.90
2019-04-14T20:34:32.006Z,5.28
2019-04-14T20:37:02.188Z,5.20
2019-04-14T20:39:32.687Z,5.92
2019-04-14T20:42:02.952Z,6.33
2019-04-14T20:44:33.009Z,5.60
2019-04-14T20:47:03.462Z,6.22
2019-04-14T20:49:46.180Z,6.00
2019-04-14T20:52:17.622Z,5.87
2019-04-14T20:54:47.753Z,5.65
2019-04-14T20:57:18.102Z,5.65
2019-04-14T20:59:48.305Z,4.42
2019-04-14T21:02:37.458Z,5.03
2019-04-14T21:05:26.639Z,5.08
2019-04-14T21:08:15.829Z,5.60
2019-04-14T21:10:56.378Z,5.45
2019-04-14T21:13:38.461Z,5.00
2019-04-14T21:16:21.385Z,5.50
2019-04-14T21:18:55.455Z,4.67
2019-04-14T21:21:44.526Z,4.87
2019-04-14T21:24:33.602Z,5.30
2019-04-14T21:27:19.361Z,4.65
2019-04-14T21:30:03.328Z,5.05
2019-04-14T21:32:38.951Z,5.22
2019-04-14T21:35:28.309Z,4.90
2019-04-14T21:38:09.912Z,4.72
2019-04-14T21:40:46.758Z,5.08
2019-04-14T21:43:16.823Z,4.40
2019-04-14T21:45:47.230Z,5.20
2019-04-14T21:48:17.435Z,5.25
2019-04-14T21:50:47.563Z,4.70
2019-04-14T21:53:17.660Z,5.22
2019-04-14T21:55:48.023Z,5.42
2019-04-14T21:58:24.103Z,5.37
2019-04-14T22:01:49.990Z,5.20
2019-04-14T22:04:39.984Z,5.08
2019-04-14T22:07:29.414Z,4.85
2019-04-14T22:10:07.678Z,6.17
2019-04-14T22:12:37.990Z,5.47
2019-04-14T22:15:08.450Z,5.72
2019-04-14T22:17:38.680Z,4.97
2019-04-14T22:20:10.330Z,4.65
2019-04-14T22:22:40.389Z,5.42
2019-04-14T22:25:10.741Z,5.03
2019-04-14T22:27:40.751Z,4.85
2019-04-14T22:30:11.388Z,4.87
2019-04-14T22:32:41.554Z,5.40
2019-04-14T22:35:12.238Z,4.92
2019-04-14T22:37:42.441Z,4.55
2019-04-14T22:40:13.482Z,4.95
2019-04-14T22:42:43.577Z,5.08
2019-04-14T22:45:13.884Z,5.35
2019-04-14T22:47:44.095Z,4.85
2019-04-14T22:50:14.246Z,4.45
2019-04-14T22:52:44.384Z,4.97
2019-04-14T22:55:14.832Z,4.53
2019-04-14T22:57:45.041Z,4.97
2019-04-14T23:00:25.571Z,5.83
2019-04-14T23:03:35.423Z,5.00
2019-04-14T23:06:16.526Z,5.07
2019-04-14T23:08:53.832Z,5.67
2019-04-14T23:11:42.918Z,5.40
2019-04-14T23:14:25.299Z,5.80
2019-04-14T23:17:14.389Z,5.37
2019-04-14T23:19:48.519Z,5.83
2019-04-14T23:22:37.626Z,6.30
2019-04-14T23:25:07.877Z,6.23
2019-04-14T23:27:40.650Z,6.23
2019-04-14T23:30:13.311Z,5.50
2019-04-14T23:32:43.349Z,5.17
2019-04-14T23:35:13.491Z,6.08
2019-04-14T23:37:43.693Z,6.50
2019-04-14T23:40:13.931Z,6.53
2019-04-14T23:42:44.102Z,5.70
2019-04-14T23:45:14.862Z,6.50
2019-04-14T23:47:45.091Z,5.77
2019-04-14T23:50:15.178Z,6.70
2019-04-14T23:52:46.129Z,5.47
2019-04-14T23:55:16.325Z,6.03
2019-04-14T23:57:46.260Z,5.47
